Ben Bolt, Texas
Current Conditions -  °F | °C
As of 4:53 AM on Tuesday 21 Oct 2014 (Local Time) from KALI Reporting Station
Clear Clear  
Wind Chill: 70°   Ceiling: Unl
Heat Index: 70°   Visibility: 7mi
Dew Point: 68°   Wind: 7mph
Humidity: 93%   Direction: 50°NE
Pressure: 29.95"   Gusts: NA
Location:  27.65°N, 98.08°W
Report Text: KALI 210953Z AUTO 05006KT 7SM CLR 21/20 A2995 RMK AO2 SLP140 T02110200
Loading
Personal Weather Stations






























Interactive Weather Map New forecast layout! Learn more

10-Day Weather Forecast

Advertisements
Track Severe Weather on mobile